Time;durP1;ratioP1;P1;durP2;ratioP2;P2;SDS_P1;SDS_P2;PMS_P1;PMS_P2;Temp;Humidity;BMP_temperature;BMP_pressure;BME280_temperature;BME280_humidity;BME280_pressure;Samples;Min_cycle;Max_cycle;Signal;HPM_P1;HPM_P2
2023/05/22 05:20:13;;;;;;;;;;;;;;;17.82;71.52;96685.78;4220613;27;10423;-64
2023/05/22 05:22:16;;;;;;;;;;;;;;;18.11;70.87;96692.69;4221284;28;5870;-64
2023/05/22 05:24:19;;;;;;;;;;;;;;;18.30;70.42;96685.22;4224016;28;5765;-64
2023/05/22 05:26:22;;;;;;;;;;;;;;;18.45;70.08;96685.44;4226871;28;5859;-64
2023/05/22 05:28:25;;;;;;;;;;;;;;;18.58;70.03;96676.28;4229745;28;5692;-64
2023/05/22 05:30:30;;;;;;;;;;;;;;;18.72;69.63;96680.25;4230883;28;5711;-64
2023/05/22 05:32:33;;;;;;;;;;;;;;;18.87;69.23;96677.75;4230784;28;5707;-64
2023/05/22 05:34:36;;;;;;;;;;;;;;;19.03;68.97;96678.78;4230700;28;5715;-64
2023/05/22 05:36:40;;;;;;;;;;;;;;;19.23;68.78;96669.34;4227100;28;6391;-64
2023/05/22 05:38:43;;;;;;;;;;;;;;;19.39;68.40;96677.31;4222610;28;5707;-64
2023/05/22 05:40:46;;;;;;;;;;;;;;;19.57;68.09;96675.38;4226178;28;5601;-65
2023/05/22 05:42:50;;;;;;;;;;;;;;;19.71;67.53;96669.38;4228637;28;6314;-64
2023/05/22 05:44:53;;;;;;;;;;;;;;;19.85;67.59;96671.63;4225336;28;5765;-64
2023/05/22 05:46:56;;;;;;;;;;;;;;;19.96;67.24;96684.06;4227240;28;5612;-65
2023/05/22 05:48:58;;;;;;;;;;;;;;;20.03;66.86;96681.97;4228456;28;5712;-65
2023/05/22 05:51:01;;;;;;;;;;;;;;;20.13;67.03;96683.91;4221558;28;5949;-64
2023/05/22 05:53:06;;;;;;;;;;;;;;;20.20;66.43;96679.97;4219695;28;7676;-67
2023/05/22 05:55:10;;;;;;;;;;;;;;;20.30;66.35;96688.09;4228066;28;5616;-65
2023/05/22 05:57:13;;;;;;;;;;;;;;;20.36;66.35;96680.88;4222202;28;5700;-65
2023/05/22 05:59:16;;;;;;;;;;;;;;;20.41;66.19;96682.81;4221105;28;5699;-65
2023/05/22 06:01:19;;;;;;;;;;;;;;;20.44;65.85;96696.53;4226870;27;5727;-65
2023/05/22 06:03:24;;;;;;;;;;;;;;;20.50;65.57;96695.53;4218824;28;5703;-65
2023/05/22 06:05:28;;;;;;;;;;;;;;;20.53;65.15;96694.19;4227768;28;6310;-65
2023/05/22 06:07:31;;;;;;;;;;;;;;;20.57;65.43;96693.41;4230503;28;5807;-65
2023/05/22 06:09:35;;;;;;;;;;;;;;;20.63;64.78;96694.25;4222512;28;5645;-65
2023/05/22 06:11:38;;;;;;;;;;;;;;;20.70;65.07;96696.69;4216778;28;5665;-64
2023/05/22 06:13:41;;;;;;;;;;;;;;;20.75;64.70;96688.69;4217098;28;5699;-64
2023/05/22 06:15:43;;;;;;;;;;;;;;;20.81;64.68;96693.00;4223199;27;5788;-64
2023/05/22 06:17:47;;;;;;;;;;;;;;;20.83;64.49;96694.34;4224165;28;5700;-65
2023/05/22 06:19:50;;;;;;;;;;;;;;;20.86;64.32;96685.81;4213138;28;5647;-64
2023/05/22 06:21:53;;;;;;;;;;;;;;;20.91;63.89;96693.88;4216343;28;5724;-65
2023/05/22 06:23:57;;;;;;;;;;;;;;;20.96;63.65;96689.63;4216940;28;5625;-64
2023/05/22 06:26:01;;;;;;;;;;;;;;;20.99;63.77;96694.47;4212810;28;5858;-64
2023/05/22 06:28:06;;;;;;;;;;;;;;;21.04;63.25;96686.41;4217478;28;5625;-64
2023/05/22 06:30:09;;;;;;;;;;;;;;;21.10;63.47;96693.44;4218215;28;5616;-64
2023/05/22 06:32:12;;;;;;;;;;;;;;;21.12;63.32;96694.78;4218019;28;5779;-64
2023/05/22 06:34:15;;;;;;;;;;;;;;;21.16;62.85;96697.75;4217840;28;9052;-67
2023/05/22 06:36:18;;;;;;;;;;;;;;;21.19;62.57;96697.25;4207144;28;6644;-68
2023/05/22 06:38:21;;;;;;;;;;;;;;;21.19;62.50;96694.56;4211774;28;5704;-67
2023/05/22 06:40:24;;;;;;;;;;;;;;;21.21;62.21;96695.09;4216014;28;5844;-67
2023/05/22 06:42:29;;;;;;;;;;;;;;;21.24;62.29;96691.88;4210212;28;5685;-68
2023/05/22 06:44:32;;;;;;;;;;;;;;;21.24;62.35;96705.31;4209833;28;5703;-68
2023/05/22 06:46:35;;;;;;;;;;;;;;;21.26;61.74;96700.50;4213330;28;5612;-68
2023/05/22 06:48:41;;;;;;;;;;;;;;;21.26;61.91;96699.69;4217783;28;5729;-68
2023/05/22 06:50:44;;;;;;;;;;;;;;;21.23;61.97;96701.00;4216374;28;5700;-68
2023/05/22 06:52:48;;;;;;;;;;;;;;;21.23;61.78;96692.94;4216050;28;5637;-68
2023/05/22 06:54:51;;;;;;;;;;;;;;;21.23;61.75;96695.63;4211452;28;5629;-68
2023/05/22 06:56:54;;;;;;;;;;;;;;;21.21;61.52;96697.78;4215645;28;5688;-68
2023/05/22 06:58:59;;;;;;;;;;;;;;;21.15;61.13;96705.00;4211433;28;5699;-67
2023/05/22 07:01:03;;;;;;;;;;;;;;;21.12;60.96;96702.84;4215843;28;5625;-67
2023/05/22 07:03:08;;;;;;;;;;;;;;;21.11;60.90;96703.91;4209178;28;5751;-67
2023/05/22 07:05:11;;;;;;;;;;;;;;;21.10;60.79;96702.31;4210024;28;5609;-67
2023/05/22 07:07:15;;;;;;;;;;;;;;;21.10;60.97;96702.31;4217702;28;5620;-66
2023/05/22 07:09:19;;;;;;;;;;;;;;;21.09;60.70;96705.25;4198031;28;6332;-66
2023/05/22 07:11:22;;;;;;;;;;;;;;;21.06;60.85;96706.56;4217958;28;5721;-67
2023/05/22 07:13:25;;;;;;;;;;;;;;;21.03;60.66;96711.66;4203896;28;5071;-67
2023/05/22 07:15:31;;;;;;;;;;;;;;;20.94;60.40;96709.47;4208932;28;5846;-67
2023/05/22 07:17:34;;;;;;;;;;;;;;;20.92;60.44;96710.81;4209433;28;6469;-67
2023/05/22 07:19:37;;;;;;;;;;;;;;;20.89;59.97;96719.41;4204534;28;5761;-67
2023/05/22 07:21:40;;;;;;;;;;;;;;;20.86;60.01;96722.59;4217922;28;5723;-67
2023/05/22 07:23:51;;;;;;;;;;;;;;;20.82;60.08;96722.28;4209112;28;5782;-66
2023/05/22 07:25:54;;;;;;;;;;;;;;;20.77;59.77;96719.59;4213415;28;5728;-67
2023/05/22 12:00:36;;;;;;;;;;;;;;;20.38;61.63;96581.28;4212299;27;10329;-65
2023/05/22 12:02:45;;;;;;;;;;;;;;;20.71;61.06;96572.88;4211542;28;5587;-65
2023/05/22 12:04:48;;;;;;;;;;;;;;;20.97;60.83;96578.38;4208584;28;6332;-64
2023/05/22 12:06:51;;;;;;;;;;;;;;;21.17;60.37;96575.72;4210128;28;5639;-64
2023/05/22 12:08:54;;;;;;;;;;;;;;;21.33;59.60;96565.84;4210860;28;5821;-64
2023/05/22 12:10:57;;;;;;;;;;;;;;;21.45;59.42;96569.88;4207492;28;5737;-64
2023/05/22 12:13:00;;;;;;;;;;;;;;;21.54;59.13;96563.97;4209873;28;5758;-65
2023/05/22 12:15:06;;;;;;;;;;;;;;;21.65;59.38;96568.28;4210933;28;5632;-65
2023/05/22 12:17:12;;;;;;;;;;;;;;;21.72;58.75;96574.19;4213631;28;5093;-65
2023/05/22 12:19:15;;;;;;;;;;;;;;;21.82;59.03;96562.63;4210213;28;5726;-65
2023/05/22 12:21:18;;;;;;;;;;;;;;;21.90;58.82;96559.41;4212498;28;5659;-65
2023/05/22 12:23:23;;;;;;;;;;;;;;;21.94;58.16;96560.47;4207827;28;5631;-65
2023/05/22 12:25:33;;;;;;;;;;;;;;;21.97;58.56;96557.22;4206995;28;5619;-65
2023/05/22 12:27:37;;;;;;;;;;;;;;;22.01;57.91;96552.91;4204001;28;7197;-65
2023/05/22 12:29:41;;;;;;;;;;;;;;;22.03;58.07;96554.25;4211413;28;5796;-65
2023/05/22 12:31:45;;;;;;;;;;;;;;;22.07;57.76;96541.88;4209664;28;5564;-65
2023/05/22 12:33:53;;;;;;;;;;;;;;;22.11;58.11;96549.44;4209844;28;5626;-65
2023/05/22 12:35:57;;;;;;;;;;;;;;;22.14;57.45;96555.06;4208895;28;5831;-64
2023/05/22 12:38:00;;;;;;;;;;;;;;;22.17;57.63;96548.34;4206097;28;5419;-65
2023/05/22 12:40:11;;;;;;;;;;;;;;;22.18;57.15;96539.97;4207565;28;5647;-64
2023/05/22 12:42:14;;;;;;;;;;;;;;;22.20;57.17;96543.22;4211760;28;5524;-65
2023/05/22 12:44:17;;;;;;;;;;;;;;;22.21;57.18;96538.66;4209220;28;5117;-65
2023/05/22 12:46:20;;;;;;;;;;;;;;;22.23;57.45;96541.88;4208778;28;5758;-66
2023/05/22 12:48:23;;;;;;;;;;;;;;;22.23;57.11;96536.50;4212441;28;5714;-65
2023/05/22 12:50:27;;;;;;;;;;;;;;;22.25;56.80;96539.72;4212718;28;5540;-65
2023/05/22 12:52:30;;;;;;;;;;;;;;;22.30;56.73;96547.75;4210775;28;5687;-66
2023/05/22 12:54:33;;;;;;;;;;;;;;;22.32;56.99;96543.75;4210445;28;5817;-65
2023/05/22 12:56:37;;;;;;;;;;;;;;;22.34;56.70;96548.84;4209790;28;5623;-65
2023/05/22 12:58:40;;;;;;;;;;;;;;;22.36;56.47;96552.06;4190495;28;5934;-65
2023/05/22 13:00:43;;;;;;;;;;;;;;;22.42;56.18;96542.06;4203957;28;5858;-65
2023/05/22 13:02:53;;;;;;;;;;;;;;;22.46;55.60;96535.88;4198303;28;5722;-64
2023/05/22 13:04:57;;;;;;;;;;;;;;;22.49;55.44;96545.28;4191840;28;5730;-65
2023/05/22 13:07:02;;;;;;;;;;;;;;;22.51;55.66;96543.13;4201109;28;5623;-66
2023/05/22 13:09:05;;;;;;;;;;;;;;;22.52;55.22;96534.75;4196627;28;5643;-65
2023/05/22 13:11:08;;;;;;;;;;;;;;;22.57;55.43;96531.25;4201077;28;5825;-66
2023/05/22 13:13:11;;;;;;;;;;;;;;;22.59;55.14;96534.47;4197574;28;5651;-65
2023/05/22 13:15:14;;;;;;;;;;;;;;;22.60;55.32;96526.13;4200974;28;5850;-65
2023/05/22 13:17:18;;;;;;;;;;;;;;;22.61;55.20;96530.41;4199142;28;5722;-65
2023/05/22 13:19:21;;;;;;;;;;;;;;;22.64;54.79;96526.38;4201116;28;5679;-65
2023/05/22 13:21:24;;;;;;;;;;;;;;;22.70;54.94;96524.47;4200839;28;5631;-66
2023/05/22 13:23:30;;;;;;;;;;;;;;;22.79;54.27;96520.13;4199088;28;5747;-67
2023/05/22 13:25:32;;;;;;;;;;;;;;;22.82;54.27;96523.06;4196602;28;5631;-66
2023/05/22 13:27:35;;;;;;;;;;;;;;;22.83;53.95;96518.47;4198115;28;5608;-66
2023/05/22 13:29:39;;;;;;;;;;;;;;;22.86;53.80;96512.53;4201023;28;5556;-66
2023/05/22 13:31:41;;;;;;;;;;;;;;;22.88;54.21;96510.41;4201190;28;5555;-65
2023/05/22 13:33:45;;;;;;;;;;;;;;;22.91;53.64;96505.25;4200709;28;5743;-66
2023/05/22 13:35:50;;;;;;;;;;;;;;;22.96;53.78;96507.09;4200590;28;5635;-67
2023/05/22 13:37:53;;;;;;;;;;;;;;;23.02;53.84;96508.69;4199404;28;5619;-66
2023/05/22 13:39:57;;;;;;;;;;;;;;;23.02;53.42;96506.00;4198385;28;5209;-67
2023/05/22 13:42:00;;;;;;;;;;;;;;;23.05;53.38;96504.63;4200769;28;5656;-66
2023/05/22 13:44:03;;;;;;;;;;;;;;;23.05;53.27;96497.34;4200453;28;5825;-66
2023/05/22 13:46:06;;;;;;;;;;;;;;;23.11;53.36;96496.25;4200490;28;5837;-67
2023/05/22 13:48:10;;;;;;;;;;;;;;;23.18;52.85;96504.78;4200254;28;5740;-66
2023/05/22 13:50:13;;;;;;;;;;;;;;;23.24;52.86;96497.50;4200145;28;5651;-66
2023/05/22 13:52:16;;;;;;;;;;;;;;;23.27;52.40;96498.81;4200210;28;5543;-66
2023/05/22 13:54:19;;;;;;;;;;;;;;;23.28;52.78;96498.53;4198844;28;5759;-67
2023/05/22 13:56:23;;;;;;;;;;;;;;;23.34;52.70;96502.00;4198429;28;5869;-66
2023/05/22 13:58:26;;;;;;;;;;;;;;;23.39;52.35;96504.66;4198516;28;7037;-66
2023/05/22 14:00:29;;;;;;;;;;;;;;;23.47;52.27;96504.06;4200612;28;5603;-67
2023/05/22 14:02:32;;;;;;;;;;;;;;;23.52;52.00;96509.41;4198604;28;5721;-65
2023/05/22 14:04:35;;;;;;;;;;;;;;;23.53;51.75;96511.00;4193907;28;5643;-65
2023/05/22 14:06:38;;;;;;;;;;;;;;;23.56;51.59;96510.47;4200701;28;5640;-65
2023/05/22 14:08:41;;;;;;;;;;;;;;;23.62;51.37;96505.84;4198175;28;5639;-65
2023/05/22 14:10:44;;;;;;;;;;;;;;;23.65;51.45;96508.78;4199376;28;5755;-66
2023/05/22 14:12:48;;;;;;;;;;;;;;;23.70;51.69;96489.84;4197412;28;5764;-65
2023/05/22 14:14:52;;;;;;;;;;;;;;;23.78;51.73;96483.84;4190331;28;5838;-65
2023/05/22 14:16:55;;;;;;;;;;;;;;;23.85;51.44;96483.50;4181900;28;5867;-65
2023/05/22 14:18:59;;;;;;;;;;;;;;;23.94;51.00;96483.69;4192456;28;5635;-64
2023/05/22 14:21:02;;;;;;;;;;;;;;;24.00;51.19;96483.34;4192554;28;5627;-65
2023/05/22 14:23:06;;;;;;;;;;;;;;;24.09;50.63;96487.03;4192787;28;5643;-65
2023/05/22 14:25:10;;;;;;;;;;;;;;;24.16;50.24;96475.09;4192952;28;5631;-65
2023/05/22 14:27:13;;;;;;;;;;;;;;;24.26;49.75;96469.56;4188871;28;5795;-66
2023/05/22 14:29:17;;;;;;;;;;;;;;;24.35;49.48;96462.44;4190609;28;5645;-65
2023/05/22 14:31:20;;;;;;;;;;;;;;;24.43;49.33;96463.72;4197256;28;5679;-66
2023/05/22 14:33:23;;;;;;;;;;;;;;;24.45;49.50;96466.91;4195149;28;5718;-66
2023/05/22 14:35:26;;;;;;;;;;;;;;;24.47;48.99;96464.75;4196905;28;5660;-65
2023/05/22 14:37:29;;;;;;;;;;;;;;;24.48;48.94;96460.97;4199510;28;5730;-66
2023/05/22 14:39:32;;;;;;;;;;;;;;;24.50;48.58;96461.47;4197089;28;5682;-65
2023/05/22 14:41:38;;;;;;;;;;;;;;;24.56;48.30;96460.28;4196841;28;5785;-66
2023/05/22 14:43:41;;;;;;;;;;;;;;;24.58;47.80;96466.25;4191881;28;5733;-65
2023/05/22 14:45:48;;;;;;;;;;;;;;;24.60;47.77;96464.84;4196888;28;5722;-67
2023/05/22 14:47:52;;;;;;;;;;;;;;;24.54;47.79;96466.00;4175500;28;6087;-66
2023/05/22 14:49:55;;;;;;;;;;;;;;;24.54;47.80;96476.00;4196858;28;5635;-65
2023/05/22 14:52:19;;;;;;;;;;;;;;;24.51;47.91;96471.19;4195258;28;5726;-65
2023/05/22 14:54:22;;;;;;;;;;;;;;;24.42;48.11;96471.00;4199487;28;7735;-65
2023/05/22 14:56:26;;;;;;;;;;;;;;;24.37;48.15;96468.38;4194760;28;5974;-65
2023/05/22 14:58:29;;;;;;;;;;;;;;;24.32;47.88;96473.84;4193494;28;5548;-65
2023/05/22 15:00:32;;;;;;;;;;;;;;;24.30;47.84;96471.44;4188202;28;5823;-65
2023/05/22 15:02:36;;;;;;;;;;;;;;;24.26;47.92;96473.06;4193118;28;5722;-65
2023/05/22 15:04:39;;;;;;;;;;;;;;;24.21;47.88;96480.41;4194817;28;5781;-65
2023/05/22 15:06:43;;;;;;;;;;;;;;;24.17;47.81;96476.69;4194074;28;6357;-66
2023/05/22 15:08:46;;;;;;;;;;;;;;;24.12;47.84;96474.84;4186339;28;5826;-65
2023/05/22 15:10:49;;;;;;;;;;;;;;;24.10;48.09;96471.63;4190367;28;5862;-65
2023/05/22 15:12:52;;;;;;;;;;;;;;;24.05;48.27;96460.88;4193596;28;5723;-66
2023/05/22 15:14:55;;;;;;;;;;;;;;;24.04;48.22;96473.59;4195137;28;5722;-65
2023/05/22 15:16:59;;;;;;;;;;;;;;;24.07;48.04;96467.59;4192158;28;6519;-64
2023/05/22 15:19:03;;;;;;;;;;;;;;;24.07;47.76;96466.81;4196083;28;5799;-65
2023/05/22 15:21:06;;;;;;;;;;;;;;;24.04;48.28;96467.38;4198593;28;5612;-65
2023/05/22 15:23:09;;;;;;;;;;;;;;;24.01;48.18;96468.78;4192383;28;5640;-65
2023/05/22 15:25:14;;;;;;;;;;;;;;;24.00;47.98;96479.81;4197183;28;5695;-66
2023/05/22 15:27:17;;;;;;;;;;;;;;;23.93;47.93;96477.47;4189953;28;5691;-64
2023/05/22 15:29:20;;;;;;;;;;;;;;;23.90;48.31;96478.06;4193814;28;5668;-66
2023/05/22 15:31:23;;;;;;;;;;;;;;;23.89;48.38;96470.22;4191150;28;5747;-65
2023/05/22 15:33:26;;;;;;;;;;;;;;;23.89;47.97;96470.22;4191283;28;5757;-66
2023/05/22 15:35:31;;;;;;;;;;;;;;;23.87;48.36;96475.09;4182085;28;5759;-66
2023/05/22 15:37:35;;;;;;;;;;;;;;;23.88;48.10;96479.41;4196602;28;5670;-66
2023/05/22 15:39:38;;;;;;;;;;;;;;;23.87;48.30;96472.41;4192848;28;5615;-66
2023/05/22 15:41:41;;;;;;;;;;;;;;;23.85;48.10;96461.91;4193702;28;5635;-65
2023/05/22 15:43:56;;;;;;;;;;;;;;;23.84;47.85;96464.88;4191553;28;5783;-65
2023/05/22 15:46:00;;;;;;;;;;;;;;;23.86;48.20;96460.00;4196389;28;5636;-65
2023/05/22 15:48:04;;;;;;;;;;;;;;;23.95;48.01;96469.09;4194061;28;5082;-65
2023/05/22 15:50:07;;;;;;;;;;;;;;;24.07;47.95;96467.59;4192279;28;5738;-65
2023/05/22 15:52:12;;;;;;;;;;;;;;;24.21;47.31;96458.81;4192105;28;5733;-65
2023/05/22 15:54:15;;;;;;;;;;;;;;;24.38;47.31;96462.69;4195170;28;5660;-65
2023/05/22 15:56:18;;;;;;;;;;;;;;;24.49;47.12;96462.56;4190492;28;5830;-64
2023/05/22 15:58:21;;;;;;;;;;;;;;;24.59;46.66;96459.72;4196815;28;5568;-66
2023/05/22 16:00:24;;;;;;;;;;;;;;;24.71;46.42;96462.81;4158904;28;5894;-65
2023/05/22 16:02:27;;;;;;;;;;;;;;;24.80;46.13;96462.94;4171733;28;5703;-65
2023/05/22 16:04:31;;;;;;;;;;;;;;;24.83;46.27;96470.50;4156484;28;5915;-65
2023/05/22 16:06:33;;;;;;;;;;;;;;;24.89;45.90;96467.41;4160401;28;5942;-65
2023/05/22 16:08:38;;;;;;;;;;;;;;;24.95;46.00;96477.06;4156987;28;5979;-65
2023/05/22 16:10:43;;;;;;;;;;;;;;;24.99;45.93;96474.56;4162256;28;5759;-65
2023/05/22 16:12:46;;;;;;;;;;;;;;;24.96;45.88;96484.06;4152683;28;5808;-64
2023/05/22 16:14:48;;;;;;;;;;;;;;;24.92;45.86;96466.84;4164807;28;5847;-65
2023/05/22 16:16:52;;;;;;;;;;;;;;;24.90;45.96;96477.13;4161179;28;5760;-65
2023/05/22 16:18:55;;;;;;;;;;;;;;;24.87;46.08;96476.91;4163453;28;5823;-65
2023/05/22 16:20:58;;;;;;;;;;;;;;;24.85;46.15;96482.59;4161367;28;5748;-65
2023/05/22 16:23:02;;;;;;;;;;;;;;;24.82;46.27;96483.19;4159351;28;5861;-68
2023/05/22 16:25:07;;;;;;;;;;;;;;;24.78;46.36;96494.88;4159892;28;5918;-65
2023/05/22 16:27:11;;;;;;;;;;;;;;;24.75;46.28;96493.56;4158799;28;5861;-66
2023/05/22 16:29:14;;;;;;;;;;;;;;;24.73;46.73;96490.34;4165798;28;5903;-66
2023/05/22 16:31:18;;;;;;;;;;;;;;;24.73;46.84;96492.25;4161824;28;5774;-66
2023/05/22 16:33:21;;;;;;;;;;;;;;;24.70;46.50;96501.75;4159377;28;5857;-66
2023/05/22 16:35:24;;;;;;;;;;;;;;;24.65;46.69;96505.31;4163291;28;5889;-66
2023/05/22 16:37:27;;;;;;;;;;;;;;;24.56;46.75;96496.22;4168482;28;5959;-65
2023/05/22 16:39:30;;;;;;;;;;;;;;;24.41;47.28;96512.63;4159083;28;5785;-65
2023/05/22 16:41:36;;;;;;;;;;;;;;;24.25;47.40;96505.78;4168613;28;5740;-65
2023/05/22 16:43:39;;;;;;;;;;;;;;;24.14;48.21;96506.97;4169388;28;5803;-65
2023/05/22 16:45:45;;;;;;;;;;;;;;;24.02;48.07;96504.66;4166826;28;5897;-65
2023/05/22 16:47:48;;;;;;;;;;;;;;;23.93;48.60;96498.28;4166175;28;5745;-65
2023/05/22 16:49:51;;;;;;;;;;;;;;;23.85;48.80;96498.88;4160320;28;5837;-65
2023/05/22 16:51:54;;;;;;;;;;;;;;;23.78;48.77;96505.44;4168136;28;5819;-65
2023/05/22 16:53:57;;;;;;;;;;;;;;;23.74;49.48;96523.28;4160209;28;5928;-66
2023/05/22 16:55:59;;;;;;;;;;;;;;;23.71;49.25;96529.25;4169943;28;5830;-66
2023/05/22 16:58:04;;;;;;;;;;;;;;;23.71;49.96;96544.63;4163910;28;5974;-66
2023/05/22 17:00:09;;;;;;;;;;;;;;;23.65;49.79;96549.25;4192382;28;7696;-66
2023/05/22 17:02:12;;;;;;;;;;;;;;;23.57;50.32;96549.84;4187477;28;5654;-66
2023/05/22 17:04:17;;;;;;;;;;;;;;;23.52;50.30;96541.78;4199215;28;5726;-66
2023/05/22 17:06:21;;;;;;;;;;;;;;;23.47;50.40;96552.63;4201152;28;5655;-66
2023/05/22 17:08:27;;;;;;;;;;;;;;;23.38;50.81;96535.41;4186874;28;5635;-66
2023/05/22 17:10:29;;;;;;;;;;;;;;;23.27;51.19;96529.28;4183006;28;5756;-65
2023/05/22 17:12:32;;;;;;;;;;;;;;;23.21;51.49;96528.50;4201004;28;5636;-65
2023/05/22 17:14:37;;;;;;;;;;;;;;;23.21;51.56;96525.00;4196126;28;5599;-65
2023/05/22 17:16:39;;;;;;;;;;;;;;;23.15;51.89;96513.47;4198677;28;5631;-65
2023/05/22 17:18:42;;;;;;;;;;;;;;;23.11;51.71;96508.91;4199701;28;5847;-65
2023/05/22 17:20:46;;;;;;;;;;;;;;;23.08;52.16;96514.84;4201642;28;6246;-64
2023/05/22 17:22:48;;;;;;;;;;;;;;;23.04;52.51;96520.00;4199860;28;5353;-65
2023/05/22 17:24:52;;;;;;;;;;;;;;;23.04;52.86;96528.09;4201690;28;5636;-66
2023/05/22 17:26:55;;;;;;;;;;;;;;;23.04;52.50;96533.47;4196891;28;5732;-65
2023/05/22 17:28:57;;;;;;;;;;;;;;;23.04;53.21;96540.75;4196811;28;5650;-65
2023/05/22 17:31:02;;;;;;;;;;;;;;;23.03;52.92;96545.34;4193138;28;5770;-65
2023/05/22 17:33:05;;;;;;;;;;;;;;;23.02;53.12;96542.94;4198302;28;5671;-66
2023/05/22 17:35:08;;;;;;;;;;;;;;;23.02;53.41;96551.81;4197520;28;5755;-66
2023/05/22 17:37:11;;;;;;;;;;;;;;;23.02;53.88;96549.13;4195480;28;5650;-66
2023/05/22 17:39:14;;;;;;;;;;;;;;;23.01;54.13;96552.91;4196802;28;5727;-66
2023/05/22 17:41:17;;;;;;;;;;;;;;;23.01;54.05;96558.31;4201047;28;5639;-66
2023/05/22 17:43:20;;;;;;;;;;;;;;;23.01;54.30;96552.09;4201798;28;5735;-65
2023/05/22 17:45:23;;;;;;;;;;;;;;;22.97;54.31;96554.53;4192541;28;5655;-65
2023/05/22 17:47:27;;;;;;;;;;;;;;;22.97;54.44;96559.91;4200022;28;5694;-65
2023/05/22 17:49:30;;;;;;;;;;;;;;;22.97;55.08;96562.63;4200308;28;7817;-66
2023/05/22 17:51:33;;;;;;;;;;;;;;;22.97;55.07;96562.63;4199260;28;5563;-65
2023/05/22 17:53:36;;;;;;;;;;;;;;;22.96;55.10;96566.41;4191435;28;5627;-64
2023/05/22 17:55:41;;;;;;;;;;;;;;;22.95;55.40;96559.41;4195056;28;5834;-65
2023/05/22 17:57:44;;;;;;;;;;;;;;;22.93;55.83;96569.66;4192759;28;5620;-65
2023/05/22 17:59:47;;;;;;;;;;;;;;;22.91;56.18;96569.13;4195470;28;5648;-65
2023/05/22 18:01:50;;;;;;;;;;;;;;;22.89;56.15;96577.50;4195679;28;5980;-64
2023/05/22 18:03:54;;;;;;;;;;;;;;;22.88;56.37;96581.28;4198189;28;5635;-65
2023/05/22 18:05:57;;;;;;;;;;;;;;;22.83;56.42;96580.44;4185716;28;5646;-65
2023/05/22 18:08:01;;;;;;;;;;;;;;;22.78;56.88;96586.69;4196891;28;5640;-65
2023/05/22 18:10:04;;;;;;;;;;;;;;;22.74;56.94;96584.78;4199636;28;5819;-65
2023/05/22 18:12:07;;;;;;;;;;;;;;;22.67;57.23;96585.91;4193149;28;5624;-65
2023/05/22 18:14:26;;;;;;;;;;;;;;;22.62;57.36;96583.22;4194557;28;5635;-65
2023/05/22 18:16:28;;;;;;;;;;;;;;;22.59;57.48;96588.34;4184905;28;5709;-65
2023/05/22 18:18:31;;;;;;;;;;;;;;;22.54;57.24;96591.88;4192709;28;5658;-65
2023/05/22 18:20:36;;;;;;;;;;;;;;;22.54;57.58;96588.38;4191909;28;5852;-65
2023/05/22 18:22:39;;;;;;;;;;;;;;;22.53;57.59;96590.25;4194184;28;5616;-65
2023/05/22 18:24:42;;;;;;;;;;;;;;;22.51;57.65;96592.41;4191793;28;5980;-65
2023/05/22 18:26:45;;;;;;;;;;;;;;;22.48;57.67;96584.88;4197854;28;7722;-66
2023/05/22 18:28:48;;;;;;;;;;;;;;;22.49;57.86;96583.81;4191617;28;7353;-65
2023/05/22 18:30:51;;;;;;;;;;;;;;;22.49;57.96;96589.19;4195069;28;5632;-65
2023/05/22 18:32:54;;;;;;;;;;;;;;;22.49;58.28;96583.00;4189206;28;5628;-65
2023/05/22 18:34:58;;;;;;;;;;;;;;;22.51;57.83;96587.03;4195251;28;5647;-66
2023/05/22 18:37:03;;;;;;;;;;;;;;;22.52;57.88;96587.84;4188692;28;5631;-66
2023/05/22 18:39:06;;;;;;;;;;;;;;;22.53;58.01;96584.06;4191547;28;5639;-65
2023/05/22 18:41:09;;;;;;;;;;;;;;;22.52;58.48;96591.34;4194199;28;5838;-64
2023/05/22 18:43:12;;;;;;;;;;;;;;;22.52;58.29;96593.22;4191161;28;5638;-64
2023/05/22 18:45:15;;;;;;;;;;;;;;;22.52;58.70;96587.84;4189254;28;5732;-65
2023/05/22 18:47:18;;;;;;;;;;;;;;;22.51;58.50;96586.22;4193124;28;5651;-65
2023/05/22 18:49:21;;;;;;;;;;;;;;;22.51;58.74;96597.81;4191038;28;5813;-65
2023/05/22 18:51:24;;;;;;;;;;;;;;;22.49;58.47;96591.88;4198225;28;5731;-65
2023/05/22 18:53:28;;;;;;;;;;;;;;;22.50;58.96;96590.00;4196248;28;5786;-66
2023/05/22 18:55:31;;;;;;;;;;;;;;;22.49;58.80;96591.09;4186672;28;5634;-63
2023/05/22 18:57:34;;;;;;;;;;;;;;;22.46;58.69;96587.06;4198040;28;5702;-65
2023/05/22 18:59:37;;;;;;;;;;;;;;;22.46;59.09;96586.25;4189915;28;7810;-66
2023/05/22 19:01:40;;;;;;;;;;;;;;;22.45;58.83;96592.72;4193375;28;5687;-65
2023/05/22 19:03:43;;;;;;;;;;;;;;;22.45;58.71;96595.41;4195066;28;5658;-65
2023/05/22 19:05:46;;;;;;;;;;;;;;;22.45;58.80;96596.22;4192239;28;5726;-65
2023/05/22 19:07:49;;;;;;;;;;;;;;;22.42;58.57;96593.25;4193412;28;5774;-66
2023/05/22 19:09:54;;;;;;;;;;;;;;;22.42;58.98;96591.34;4190530;28;5830;-65
2023/05/22 19:11:57;;;;;;;;;;;;;;;22.39;58.88;96597.28;4192082;28;5813;-65
2023/05/22 19:14:00;;;;;;;;;;;;;;;22.40;58.53;96593.53;4185238;28;5639;-65
2023/05/22 19:16:03;;;;;;;;;;;;;;;22.39;58.56;96591.91;4195206;28;5635;-66
2023/05/22 19:18:06;;;;;;;;;;;;;;;22.38;59.00;96598.38;4194539;28;5615;-67
2023/05/22 19:20:11;;;;;;;;;;;;;;;22.37;58.70;96591.38;4199057;28;5632;-67
2023/05/22 19:22:14;;;;;;;;;;;;;;;22.37;58.92;96596.75;4190085;28;5750;-67
2023/05/22 19:24:19;;;;;;;;;;;;;;;22.35;59.46;96599.75;4195946;28;5595;-66
2023/05/22 19:26:25;;;;;;;;;;;;;;;22.33;59.38;96598.41;4198836;28;5691;-66
2023/05/22 19:28:29;;;;;;;;;;;;;;;22.33;59.16;96601.09;4197087;28;5627;-68
2023/05/22 19:30:32;;;;;;;;;;;;;;;22.30;59.59;96593.53;4196110;28;5619;-67
2023/05/22 19:32:35;;;;;;;;;;;;;;;22.31;59.74;96595.97;4187662;28;6796;-68
2023/05/22 19:34:38;;;;;;;;;;;;;;;22.29;59.83;96600.81;4198545;28;5699;-67
2023/05/22 19:36:41;;;;;;;;;;;;;;;22.29;59.86;96594.63;4185081;28;5164;-67
2023/05/22 19:38:44;;;;;;;;;;;;;;;22.28;59.91;96596.50;4197881;28;5775;-67
2023/05/22 19:40:47;;;;;;;;;;;;;;;22.27;59.72;96607.56;4192618;28;5628;-69
2023/05/22 19:42:51;;;;;;;;;;;;;;;22.25;59.87;96602.44;4198196;28;5749;-68
2023/05/22 19:44:54;;;;;;;;;;;;;;;22.24;59.97;96608.09;4187754;28;5730;-68
2023/05/22 19:46:57;;;;;;;;;;;;;;;22.21;59.93;96604.06;4193672;28;5744;-70
2023/05/22 19:49:00;;;;;;;;;;;;;;;22.21;60.25;96609.47;4177384;28;5782;-68
2023/05/22 19:51:04;;;;;;;;;;;;;;;22.19;59.86;96605.41;4183005;28;6451;-67
2023/05/22 19:53:07;;;;;;;;;;;;;;;22.17;59.96;96605.69;4183968;28;5082;-67
2023/05/22 19:55:11;;;;;;;;;;;;;;;22.16;59.94;96606.75;4193965;28;5831;-66
2023/05/22 19:57:16;;;;;;;;;;;;;;;22.16;60.19;96608.66;4199227;28;5755;-66
2023/05/22 19:59:20;;;;;;;;;;;;;;;22.15;59.97;96607.84;4199412;28;5855;-65
2023/05/22 20:01:23;;;;;;;;;;;;;;;22.16;60.29;96605.94;4199309;28;5639;-66
2023/05/22 20:03:26;;;;;;;;;;;;;;;22.15;60.25;96613.22;4199502;28;5615;-67
2023/05/22 20:05:29;;;;;;;;;;;;;;;22.14;60.15;96611.63;4191255;28;5962;-67
2023/05/22 20:07:32;;;;;;;;;;;;;;;22.14;60.41;96618.88;4183654;28;5638;-67
2023/05/22 20:09:35;;;;;;;;;;;;;;;22.14;60.38;96618.88;4198779;28;5650;-67
2023/05/22 20:11:38;;;;;;;;;;;;;;;22.14;60.05;96626.97;4195619;28;5715;-67
2023/05/22 20:13:41;;;;;;;;;;;;;;;22.15;60.08;96631.25;4198725;28;5524;-67
2023/05/22 20:15:47;;;;;;;;;;;;;;;22.14;60.28;96640.41;4192346;28;5730;-67
2023/05/22 20:17:51;;;;;;;;;;;;;;;22.12;60.49;96643.38;4194696;28;5094;-65
2023/05/22 20:19:57;;;;;;;;;;;;;;;22.08;60.31;96644.97;4196313;28;5766;-65
2023/05/22 20:22:00;;;;;;;;;;;;;;;22.06;60.68;96645.25;4198480;28;5691;-66
2023/05/22 20:24:04;;;;;;;;;;;;;;;22.05;60.31;96651.69;4194510;28;5647;-65
2023/05/22 20:26:08;;;;;;;;;;;;;;;22.02;60.43;96651.44;4197231;28;5693;-65
2023/05/22 20:28:10;;;;;;;;;;;;;;;22.00;60.49;96659.78;4199062;28;5627;-66
2023/05/22 20:30:14;;;;;;;;;;;;;;;21.99;60.66;96651.97;4197812;28;5799;-65
2023/05/22 20:32:18;;;;;;;;;;;;;;;21.99;60.31;96663.56;4188645;28;5734;-66
2023/05/22 20:34:21;;;;;;;;;;;;;;;21.99;60.67;96662.75;4195596;28;6470;-65
2023/05/22 20:36:24;;;;;;;;;;;;;;;21.96;60.44;96666.75;4194539;28;5066;-67
2023/05/22 20:38:28;;;;;;;;;;;;;;;21.98;60.69;96671.91;4190042;28;5899;-65
2023/05/22 20:40:32;;;;;;;;;;;;;;;21.98;60.76;96661.13;4196314;28;5615;-66
2023/05/22 20:42:36;;;;;;;;;;;;;;;21.99;60.75;96668.94;4202162;28;5635;-65
2023/05/22 20:44:40;;;;;;;;;;;;;;;21.99;60.17;96673.50;4201616;28;5664;-65